Crescent Valley, Nevada
Current Conditions -  °F | °C
As of 4:56 AM on Thursday 23 Oct 2014 (Local Time) from KEKO Reporting Station
Clear Clear  
Wind Chill: 36°   Ceiling: Unl
Heat Index: 36°   Visibility: 10mi
Dew Point: 22°   Wind: 3mph
Humidity: 57%   Direction: 150°SSE
Pressure: 30.1"   Gusts: NA
Location:  40.42°N, 116.58°W
Report Text: KEKO 231156Z AUTO 15003KT 10SM CLR 02/M06 A3010 RMK AO2 SLP176 7//// T00221056 10072 20022 58001
Loading
Personal Weather Stations






























Interactive Weather Map New forecast layout! Learn more

10-Day Weather Forecast

Advertisements
Track Severe Weather on mobile